sensor_id;sensor_type;location;lat;lon;timestamp;temperature;humidity
69208;SHT31;56321;47.662;8.878;2023-01-16T00:00:54;4.90;66.72
69208;SHT31;56321;47.662;8.878;2023-01-16T00:03:20;4.86;66.58
69208;SHT31;56321;47.662;8.878;2023-01-16T00:05:46;4.83;66.52
69208;SHT31;56321;47.662;8.878;2023-01-16T00:08:11;4.83;67.00
69208;SHT31;56321;47.662;8.878;2023-01-16T00:10:37;4.76;66.71
69208;SHT31;56321;47.662;8.878;2023-01-16T00:13:02;4.76;66.40
69208;SHT31;56321;47.662;8.878;2023-01-16T00:15:28;4.73;66.66
69208;SHT31;56321;47.662;8.878;2023-01-16T00:17:53;4.69;66.59
69208;SHT31;56321;47.662;8.878;2023-01-16T00:20:18;4.70;66.58
69208;SHT31;56321;47.662;8.878;2023-01-16T00:22:44;4.72;66.75
69208;SHT31;56321;47.662;8.878;2023-01-16T00:25:10;4.72;66.84
69208;SHT31;56321;47.662;8.878;2023-01-16T00:27:35;4.77;66.97
69208;SHT31;56321;47.662;8.878;2023-01-16T00:30:01;4.80;66.72
69208;SHT31;56321;47.662;8.878;2023-01-16T00:32:26;4.79;66.73
69208;SHT31;56321;47.662;8.878;2023-01-16T00:34:51;4.79;66.80
69208;SHT31;56321;47.662;8.878;2023-01-16T00:37:16;4.77;66.65
69208;SHT31;56321;47.662;8.878;2023-01-16T00:39:42;4.79;66.61
69208;SHT31;56321;47.662;8.878;2023-01-16T00:42:07;4.77;66.95
69208;SHT31;56321;47.662;8.878;2023-01-16T00:44:33;4.75;66.99
69208;SHT31;56321;47.662;8.878;2023-01-16T00:46:58;4.73;67.12
69208;SHT31;56321;47.662;8.878;2023-01-16T00:49:24;4.73;67.29
69208;SHT31;56321;47.662;8.878;2023-01-16T00:51:49;4.70;67.40
69208;SHT31;56321;47.662;8.878;2023-01-16T00:54:14;4.68;67.21
69208;SHT31;56321;47.662;8.878;2023-01-16T00:56:39;4.65;67.00
69208;SHT31;56321;47.662;8.878;2023-01-16T00:59:05;4.61;66.85
69208;SHT31;56321;47.662;8.878;2023-01-16T01:01:30;4.56;66.69
69208;SHT31;56321;47.662;8.878;2023-01-16T01:04:00;4.58;67.09
69208;SHT31;56321;47.662;8.878;2023-01-16T01:06:25;4.56;66.71
69208;SHT31;56321;47.662;8.878;2023-01-16T01:08:50;4.55;66.67
69208;SHT31;56321;47.662;8.878;2023-01-16T01:11:16;4.56;66.64
69208;SHT31;56321;47.662;8.878;2023-01-16T01:13:41;4.58;66.76
69208;SHT31;56321;47.662;8.878;2023-01-16T01:16:07;4.56;66.74
69208;SHT31;56321;47.662;8.878;2023-01-16T01:18:33;4.52;66.69
69208;SHT31;56321;47.662;8.878;2023-01-16T01:20:59;4.42;66.94
69208;SHT31;56321;47.662;8.878;2023-01-16T01:23:24;4.35;67.17
69208;SHT31;56321;47.662;8.878;2023-01-16T01:25:50;4.30;67.49
69208;SHT31;56321;47.662;8.878;2023-01-16T01:28:15;4.24;67.78
69208;SHT31;56321;47.662;8.878;2023-01-16T01:30:41;4.17;68.07
69208;SHT31;56321;47.662;8.878;2023-01-16T01:33:06;4.14;68.22
69208;SHT31;56321;47.662;8.878;2023-01-16T01:35:32;4.05;68.38
69208;SHT31;56321;47.662;8.878;2023-01-16T01:37:57;4.07;68.84
69208;SHT31;56321;47.662;8.878;2023-01-16T01:40:22;4.07;68.96
69208;SHT31;56321;47.662;8.878;2023-01-16T01:42:48;4.10;69.06
69208;SHT31;56321;47.662;8.878;2023-01-16T01:45:25;4.13;68.95
69208;SHT31;56321;47.662;8.878;2023-01-16T01:50:46;4.17;68.82
69208;SHT31;56321;47.662;8.878;2023-01-16T01:53:27;4.20;69.07
69208;SHT31;56321;47.662;8.878;2023-01-16T01:55:56;4.24;68.97
69208;SHT31;56321;47.662;8.878;2023-01-16T01:58:23;4.27;68.95
69208;SHT31;56321;47.662;8.878;2023-01-16T02:00:53;4.30;68.98
69208;SHT31;56321;47.662;8.878;2023-01-16T02:03:22;4.32;68.85
69208;SHT31;56321;47.662;8.878;2023-01-16T02:05:52;4.30;68.74
69208;SHT31;56321;47.662;8.878;2023-01-16T02:08:21;4.32;68.85
69208;SHT31;56321;47.662;8.878;2023-01-16T02:10:51;4.37;68.94
69208;SHT31;56321;47.662;8.878;2023-01-16T02:13:18;4.38;69.04
69208;SHT31;56321;47.662;8.878;2023-01-16T02:15:43;4.41;69.05
69208;SHT31;56321;47.662;8.878;2023-01-16T02:18:28;4.44;68.86
69208;SHT31;56321;47.662;8.878;2023-01-16T02:21:50;4.40;68.62
69208;SHT31;56321;47.662;8.878;2023-01-16T02:27:52;4.44;68.58
69208;SHT31;56321;47.662;8.878;2023-01-16T02:32:58;4.40;68.69
69208;SHT31;56321;47.662;8.878;2023-01-16T02:41:06;4.38;68.66
69208;SHT31;56321;47.662;8.878;2023-01-16T02:46:27;4.32;68.47
69208;SHT31;56321;47.662;8.878;2023-01-16T02:49:16;4.28;68.40
69208;SHT31;56321;47.662;8.878;2023-01-16T02:54:42;4.11;68.45
69208;SHT31;56321;47.662;8.878;2023-01-16T02:57:16;4.05;68.52
69208;SHT31;56321;47.662;8.878;2023-01-16T02:59:43;3.95;68.69
69208;SHT31;56321;47.662;8.878;2023-01-16T03:02:08;3.93;68.64
69208;SHT31;56321;47.662;8.878;2023-01-16T03:07:45;3.74;68.98
69208;SHT31;56321;47.662;8.878;2023-01-16T03:21:10;3.45;69.18
69208;SHT31;56321;47.662;8.878;2023-01-16T03:23:52;3.40;69.43
69208;SHT31;56321;47.662;8.878;2023-01-16T03:26:35;3.31;69.61
69208;SHT31;56321;47.662;8.878;2023-01-16T03:29:18;3.28;69.59
69208;SHT31;56321;47.662;8.878;2023-01-16T03:32:05;3.24;69.73
69208;SHT31;56321;47.662;8.878;2023-01-16T03:34:56;3.18;69.66
69208;SHT31;56321;47.662;8.878;2023-01-16T03:37:46;3.15;69.72
69208;SHT31;56321;47.662;8.878;2023-01-16T03:40:17;3.12;69.86
69208;SHT31;56321;47.662;8.878;2023-01-16T03:42:58;3.07;70.00
69208;SHT31;56321;47.662;8.878;2023-01-16T03:45:32;3.05;69.81
69208;SHT31;56321;47.662;8.878;2023-01-16T03:48:04;3.04;69.89
69208;SHT31;56321;47.662;8.878;2023-01-16T03:50:32;3.01;69.94
69208;SHT31;56321;47.662;8.878;2023-01-16T03:53:09;2.97;69.95
69208;SHT31;56321;47.662;8.878;2023-01-16T03:55:42;2.96;70.01
69208;SHT31;56321;47.662;8.878;2023-01-16T03:58:36;2.96;69.99
69208;SHT31;56321;47.662;8.878;2023-01-16T04:03:54;2.97;69.80
69208;SHT31;56321;47.662;8.878;2023-01-16T04:06:41;2.98;69.83
69208;SHT31;56321;47.662;8.878;2023-01-16T04:09:13;2.97;69.77
69208;SHT31;56321;47.662;8.878;2023-01-16T04:11:43;2.98;69.75
69208;SHT31;56321;47.662;8.878;2023-01-16T04:14:11;2.98;69.68
69208;SHT31;56321;47.662;8.878;2023-01-16T04:16:38;2.96;69.57
69208;SHT31;56321;47.662;8.878;2023-01-16T04:19:05;2.93;69.60
69208;SHT31;56321;47.662;8.878;2023-01-16T04:21:32;2.93;69.52
69208;SHT31;56321;47.662;8.878;2023-01-16T04:23:57;2.90;69.46
69208;SHT31;56321;47.662;8.878;2023-01-16T04:26:24;2.86;69.49
69208;SHT31;56321;47.662;8.878;2023-01-16T04:28:49;2.83;69.44
69208;SHT31;56321;47.662;8.878;2023-01-16T04:31:20;2.76;69.79
69208;SHT31;56321;47.662;8.878;2023-01-16T04:33:45;2.73;69.71
69208;SHT31;56321;47.662;8.878;2023-01-16T04:36:11;2.70;69.73
69208;SHT31;56321;47.662;8.878;2023-01-16T04:38:36;2.64;69.79
69208;SHT31;56321;47.662;8.878;2023-01-16T04:41:01;2.59;69.77
69208;SHT31;56321;47.662;8.878;2023-01-16T04:43:27;2.54;70.02
69208;SHT31;56321;47.662;8.878;2023-01-16T04:45:52;2.52;70.20
69208;SHT31;56321;47.662;8.878;2023-01-16T04:48:17;2.49;70.36
69208;SHT31;56321;47.662;8.878;2023-01-16T04:50:42;2.46;70.56
69208;SHT31;56321;47.662;8.878;2023-01-16T04:53:08;2.43;70.56
69208;SHT31;56321;47.662;8.878;2023-01-16T04:55:33;2.42;70.58
69208;SHT31;56321;47.662;8.878;2023-01-16T04:57:58;2.38;70.61
69208;SHT31;56321;47.662;8.878;2023-01-16T05:00:24;2.39;70.63
69208;SHT31;56321;47.662;8.878;2023-01-16T05:02:49;2.39;70.55
69208;SHT31;56321;47.662;8.878;2023-01-16T05:05:15;2.39;70.63
69208;SHT31;56321;47.662;8.878;2023-01-16T05:07:40;2.36;70.66
69208;SHT31;56321;47.662;8.878;2023-01-16T05:10:05;2.33;70.57
69208;SHT31;56321;47.662;8.878;2023-01-16T05:12:31;2.32;70.52
69208;SHT31;56321;47.662;8.878;2023-01-16T05:14:56;2.29;70.54
69208;SHT31;56321;47.662;8.878;2023-01-16T05:17:21;2.26;70.52
69208;SHT31;56321;47.662;8.878;2023-01-16T05:19:50;2.22;70.52
69208;SHT31;56321;47.662;8.878;2023-01-16T05:22:15;2.22;70.60
69208;SHT31;56321;47.662;8.878;2023-01-16T05:24:40;2.18;70.69
69208;SHT31;56321;47.662;8.878;2023-01-16T05:27:06;2.17;70.69
69208;SHT31;56321;47.662;8.878;2023-01-16T05:29:31;2.14;70.55
69208;SHT31;56321;47.662;8.878;2023-01-16T05:31:56;2.08;70.53
69208;SHT31;56321;47.662;8.878;2023-01-16T05:34:21;2.07;70.69
69208;SHT31;56321;47.662;8.878;2023-01-16T05:36:47;2.05;70.80
69208;SHT31;56321;47.662;8.878;2023-01-16T05:39:12;2.04;70.77
69208;SHT31;56321;47.662;8.878;2023-01-16T05:41:38;1.98;70.71
69208;SHT31;56321;47.662;8.878;2023-01-16T05:44:03;1.98;70.64
69208;SHT31;56321;47.662;8.878;2023-01-16T05:46:28;1.95;70.86
69208;SHT31;56321;47.662;8.878;2023-01-16T05:48:54;1.93;70.94
69208;SHT31;56321;47.662;8.878;2023-01-16T05:51:19;1.91;70.93
69208;SHT31;56321;47.662;8.878;2023-01-16T05:53:49;1.90;70.84
69208;SHT31;56321;47.662;8.878;2023-01-16T05:56:21;1.90;71.01
69208;SHT31;56321;47.662;8.878;2023-01-16T05:58:50;1.87;70.99
69208;SHT31;56321;47.662;8.878;2023-01-16T06:01:16;1.81;70.86
69208;SHT31;56321;47.662;8.878;2023-01-16T06:03:41;1.78;70.81
69208;SHT31;56321;47.662;8.878;2023-01-16T06:06:06;1.75;71.11
69208;SHT31;56321;47.662;8.878;2023-01-16T06:08:32;1.74;71.10
69208;SHT31;56321;47.662;8.878;2023-01-16T06:10:57;1.77;71.58
69208;SHT31;56321;47.662;8.878;2023-01-16T06:13:23;1.80;71.34
69208;SHT31;56321;47.662;8.878;2023-01-16T06:15:48;1.80;71.30
69208;SHT31;56321;47.662;8.878;2023-01-16T06:18:13;1.80;71.33
69208;SHT31;56321;47.662;8.878;2023-01-16T06:20:39;1.81;71.38
69208;SHT31;56321;47.662;8.878;2023-01-16T06:23:05;1.81;71.50
69208;SHT31;56321;47.662;8.878;2023-01-16T06:25:30;1.83;71.46
69208;SHT31;56321;47.662;8.878;2023-01-16T06:27:55;1.85;71.17
69208;SHT31;56321;47.662;8.878;2023-01-16T06:30:21;1.81;71.08
69208;SHT31;56321;47.662;8.878;2023-01-16T06:32:49;1.81;71.00
69208;SHT31;56321;47.662;8.878;2023-01-16T06:35:15;1.81;71.32
69208;SHT31;56321;47.662;8.878;2023-01-16T06:37:41;1.84;71.32
69208;SHT31;56321;47.662;8.878;2023-01-16T06:40:07;1.84;71.18
69208;SHT31;56321;47.662;8.878;2023-01-16T06:42:33;1.84;71.11
69208;SHT31;56321;47.662;8.878;2023-01-16T06:44:58;1.88;71.28
69208;SHT31;56321;47.662;8.878;2023-01-16T06:47:24;1.88;71.30
69208;SHT31;56321;47.662;8.878;2023-01-16T06:49:49;1.87;71.35
69208;SHT31;56321;47.662;8.878;2023-01-16T06:52:14;1.85;71.29
69208;SHT31;56321;47.662;8.878;2023-01-16T06:54:39;1.87;71.14
69208;SHT31;56321;47.662;8.878;2023-01-16T06:57:05;1.87;71.29
69208;SHT31;56321;47.662;8.878;2023-01-16T06:59:30;1.90;71.35
69208;SHT31;56321;47.662;8.878;2023-01-16T07:01:55;1.84;71.29
69208;SHT31;56321;47.662;8.878;2023-01-16T07:04:21;1.85;71.31
69208;SHT31;56321;47.662;8.878;2023-01-16T07:06:46;1.84;71.28
69208;SHT31;56321;47.662;8.878;2023-01-16T07:09:13;1.84;71.51
69208;SHT31;56321;47.662;8.878;2023-01-16T07:11:39;1.84;71.75
69208;SHT31;56321;47.662;8.878;2023-01-16T07:14:04;1.87;71.77
69208;SHT31;56321;47.662;8.878;2023-01-16T07:16:48;1.90;71.83
69208;SHT31;56321;47.662;8.878;2023-01-16T07:19:32;1.87;72.05
69208;SHT31;56321;47.662;8.878;2023-01-16T07:22:16;1.94;72.19
69208;SHT31;56321;47.662;8.878;2023-01-16T07:25:07;1.95;72.24
69208;SHT31;56321;47.662;8.878;2023-01-16T07:27:34;1.97;72.23
69208;SHT31;56321;47.662;8.878;2023-01-16T07:29:59;1.95;72.18
69208;SHT31;56321;47.662;8.878;2023-01-16T07:32:25;1.95;72.17
69208;SHT31;56321;47.662;8.878;2023-01-16T07:34:50;1.97;72.23
69208;SHT31;56321;47.662;8.878;2023-01-16T07:37:15;1.97;72.16
69208;SHT31;56321;47.662;8.878;2023-01-16T07:39:40;1.94;72.30
69208;SHT31;56321;47.662;8.878;2023-01-16T07:42:07;1.97;72.29
69208;SHT31;56321;47.662;8.878;2023-01-16T07:44:32;1.98;72.28
69208;SHT31;56321;47.662;8.878;2023-01-16T07:46:58;2.00;72.39
69208;SHT31;56321;47.662;8.878;2023-01-16T07:49:24;2.01;72.41
69208;SHT31;56321;47.662;8.878;2023-01-16T07:51:49;2.07;72.29
69208;SHT31;56321;47.662;8.878;2023-01-16T07:54:14;2.10;72.32
69208;SHT31;56321;47.662;8.878;2023-01-16T07:56:40;2.18;72.36
69208;SHT31;56321;47.662;8.878;2023-01-16T07:59:05;2.24;72.35
69208;SHT31;56321;47.662;8.878;2023-01-16T08:01:31;2.28;72.36
69208;SHT31;56321;47.662;8.878;2023-01-16T08:03:56;2.32;72.28
69208;SHT31;56321;47.662;8.878;2023-01-16T08:06:22;2.35;72.30
69208;SHT31;56321;47.662;8.878;2023-01-16T08:08:47;2.39;72.45
69208;SHT31;56321;47.662;8.878;2023-01-16T08:11:12;2.39;72.44
69208;SHT31;56321;47.662;8.878;2023-01-16T08:13:56;2.42;72.40
69208;SHT31;56321;47.662;8.878;2023-01-16T08:16:21;2.43;72.60
69208;SHT31;56321;47.662;8.878;2023-01-16T08:18:46;2.45;72.69
69208;SHT31;56321;47.662;8.878;2023-01-16T08:21:14;2.49;72.68
69208;SHT31;56321;47.662;8.878;2023-01-16T08:23:40;2.53;72.63
69208;SHT31;56321;47.662;8.878;2023-01-16T08:26:05;2.54;72.59
69208;SHT31;56321;47.662;8.878;2023-01-16T08:28:30;2.57;72.64
69208;SHT31;56321;47.662;8.878;2023-01-16T08:31:03;2.59;72.41
69208;SHT31;56321;47.662;8.878;2023-01-16T08:33:29;2.56;72.49
69208;SHT31;56321;47.662;8.878;2023-01-16T08:35:56;2.57;72.46
69208;SHT31;56321;47.662;8.878;2023-01-16T08:38:21;2.60;72.36
69208;SHT31;56321;47.662;8.878;2023-01-16T08:40:47;2.64;72.32
69208;SHT31;56321;47.662;8.878;2023-01-16T08:43:12;2.67;72.54
69208;SHT31;56321;47.662;8.878;2023-01-16T08:45:56;2.72;72.56
69208;SHT31;56321;47.662;8.878;2023-01-16T08:48:51;2.79;72.46
69208;SHT31;56321;47.662;8.878;2023-01-16T08:51:34;2.81;72.50
69208;SHT31;56321;47.662;8.878;2023-01-16T08:54:00;2.87;72.61
69208;SHT31;56321;47.662;8.878;2023-01-16T08:56:26;2.87;72.42
69208;SHT31;56321;47.662;8.878;2023-01-16T08:58:51;2.91;72.32
69208;SHT31;56321;47.662;8.878;2023-01-16T09:01:16;2.98;72.18
69208;SHT31;56321;47.662;8.878;2023-01-16T09:03:42;3.00;72.39
69208;SHT31;56321;47.662;8.878;2023-01-16T09:06:09;3.00;72.30
69208;SHT31;56321;47.662;8.878;2023-01-16T09:08:34;3.01;72.48
69208;SHT31;56321;47.662;8.878;2023-01-16T09:10:59;3.05;72.49
69208;SHT31;56321;47.662;8.878;2023-01-16T09:13:43;3.09;72.56
69208;SHT31;56321;47.662;8.878;2023-01-16T09:16:17;3.12;72.53
69208;SHT31;56321;47.662;8.878;2023-01-16T09:18:42;3.18;72.47
69208;SHT31;56321;47.662;8.878;2023-01-16T09:21:08;3.19;72.32
69208;SHT31;56321;47.662;8.878;2023-01-16T09:23:33;3.21;72.03
69208;SHT31;56321;47.662;8.878;2023-01-16T09:25:58;3.25;71.98
69208;SHT31;56321;47.662;8.878;2023-01-16T09:28:23;3.26;71.81
69208;SHT31;56321;47.662;8.878;2023-01-16T09:30:50;3.28;71.64
69208;SHT31;56321;47.662;8.878;2023-01-16T09:33:16;3.32;71.79
69208;SHT31;56321;47.662;8.878;2023-01-16T09:35:41;3.36;71.80
69208;SHT31;56321;47.662;8.878;2023-01-16T09:38:07;3.40;71.63
69208;SHT31;56321;47.662;8.878;2023-01-16T09:40:32;3.45;71.57
69208;SHT31;56321;47.662;8.878;2023-01-16T09:45:53;3.56;71.19
69208;SHT31;56321;47.662;8.878;2023-01-16T09:48:32;3.62;71.03
69208;SHT31;56321;47.662;8.878;2023-01-16T09:51:01;3.66;70.70
69208;SHT31;56321;47.662;8.878;2023-01-16T09:56:12;3.69;70.36
69208;SHT31;56321;47.662;8.878;2023-01-16T09:59:19;3.74;70.30
69208;SHT31;56321;47.662;8.878;2023-01-16T10:01:53;3.80;70.55
69208;SHT31;56321;47.662;8.878;2023-01-16T10:04:22;3.87;70.73
69208;SHT31;56321;47.662;8.878;2023-01-16T10:07:18;3.87;70.24
69208;SHT31;56321;47.662;8.878;2023-01-16T10:12:35;4.01;69.99
69208;SHT31;56321;47.662;8.878;2023-01-16T10:17:55;4.05;70.07
69208;SHT31;56321;47.662;8.878;2023-01-16T10:20:27;4.07;70.11
69208;SHT31;56321;47.662;8.878;2023-01-16T10:25:46;4.14;69.32
69208;SHT31;56321;47.662;8.878;2023-01-16T10:28:39;4.18;69.55
69208;SHT31;56321;47.662;8.878;2023-01-16T10:31:29;4.21;69.22
69208;SHT31;56321;47.662;8.878;2023-01-16T10:34:18;4.27;68.98
69208;SHT31;56321;47.662;8.878;2023-01-16T10:36:48;4.31;69.11
69208;SHT31;56321;47.662;8.878;2023-01-16T10:39:17;4.34;68.65
69208;SHT31;56321;47.662;8.878;2023-01-16T10:41:50;4.37;69.35
69208;SHT31;56321;47.662;8.878;2023-01-16T10:44:46;4.49;69.04
69208;SHT31;56321;47.662;8.878;2023-01-16T10:47:34;4.58;68.44
69208;SHT31;56321;47.662;8.878;2023-01-16T10:50:19;4.63;68.45
69208;SHT31;56321;47.662;8.878;2023-01-16T10:52:46;4.66;68.87
69208;SHT31;56321;47.662;8.878;2023-01-16T10:55:13;4.70;68.87
69208;SHT31;56321;47.662;8.878;2023-01-16T10:57:51;4.75;68.62
69208;SHT31;56321;47.662;8.878;2023-01-16T11:00:24;4.72;68.34
69208;SHT31;56321;47.662;8.878;2023-01-16T11:02:57;4.72;68.64
69208;SHT31;56321;47.662;8.878;2023-01-16T11:07:52;4.63;68.77
69208;SHT31;56321;47.662;8.878;2023-01-16T11:10:18;4.63;68.69
69208;SHT31;56321;47.662;8.878;2023-01-16T11:12:44;4.62;68.86
69208;SHT31;56321;47.662;8.878;2023-01-16T11:15:28;4.59;69.08
69208;SHT31;56321;47.662;8.878;2023-01-16T11:18:28;4.66;69.14
69208;SHT31;56321;47.662;8.878;2023-01-16T11:20:53;4.68;69.05
69208;SHT31;56321;47.662;8.878;2023-01-16T11:23:21;4.72;68.65
69208;SHT31;56321;47.662;8.878;2023-01-16T11:25:49;4.77;68.84
69208;SHT31;56321;47.662;8.878;2023-01-16T11:28:24;4.77;68.47
69208;SHT31;56321;47.662;8.878;2023-01-16T11:30:53;4.81;68.30
69208;SHT31;56321;47.662;8.878;2023-01-16T11:33:25;4.84;68.28
69208;SHT31;56321;47.662;8.878;2023-01-16T11:35:55;4.89;68.02
69208;SHT31;56321;47.662;8.878;2023-01-16T11:38:22;4.90;67.87
69208;SHT31;56321;47.662;8.878;2023-01-16T11:40:49;4.96;67.89
69208;SHT31;56321;47.662;8.878;2023-01-16T11:43:18;4.97;67.80
69208;SHT31;56321;47.662;8.878;2023-01-16T11:49:01;5.06;67.48
69208;SHT31;56321;47.662;8.878;2023-01-16T11:51:32;5.07;67.32
69208;SHT31;56321;47.662;8.878;2023-01-16T11:53:59;5.11;66.93
69208;SHT31;56321;47.662;8.878;2023-01-16T11:56:43;5.14;66.74
69208;SHT31;56321;47.662;8.878;2023-01-16T11:59:33;5.13;66.40
69208;SHT31;56321;47.662;8.878;2023-01-16T12:07:53;5.01;66.00
69208;SHT31;56321;47.662;8.878;2023-01-16T12:10:42;5.03;65.78
69208;SHT31;56321;47.662;8.878;2023-01-16T12:13:11;5.06;66.08
69208;SHT31;56321;47.662;8.878;2023-01-16T12:16:20;5.10;65.34
69208;SHT31;56321;47.662;8.878;2023-01-16T12:21:49;5.18;65.53
69208;SHT31;56321;47.662;8.878;2023-01-16T12:24:26;5.26;65.42
69208;SHT31;56321;47.662;8.878;2023-01-16T12:27:08;5.27;65.75
69208;SHT31;56321;47.662;8.878;2023-01-16T12:32:52;5.37;66.09
69208;SHT31;56321;47.662;8.878;2023-01-16T12:35:28;5.42;66.36
69208;SHT31;56321;47.662;8.878;2023-01-16T12:57:45;6.89;64.83
69208;SHT31;56321;47.662;8.878;2023-01-16T13:00:15;7.19;64.03
69208;SHT31;56321;47.662;8.878;2023-01-16T13:02:57;7.48;63.48
69208;SHT31;56321;47.662;8.878;2023-01-16T13:05:27;7.71;62.60
69208;SHT31;56321;47.662;8.878;2023-01-16T13:08:14;7.88;61.76
69208;SHT31;56321;47.662;8.878;2023-01-16T13:10:44;7.95;61.56
69208;SHT31;56321;47.662;8.878;2023-01-16T13:13:35;7.93;61.92
69208;SHT31;56321;47.662;8.878;2023-01-16T13:18:37;7.74;61.49
69208;SHT31;56321;47.662;8.878;2023-01-16T13:21:08;7.61;61.96
69208;SHT31;56321;47.662;8.878;2023-01-16T13:24:03;7.48;61.21
69208;SHT31;56321;47.662;8.878;2023-01-16T13:26:30;7.34;61.54
69208;SHT31;56321;47.662;8.878;2023-01-16T13:29:05;7.27;61.83
69208;SHT31;56321;47.662;8.878;2023-01-16T13:31:51;7.13;61.77
69208;SHT31;56321;47.662;8.878;2023-01-16T13:34:34;7.02;62.39
69208;SHT31;56321;47.662;8.878;2023-01-16T13:40:08;6.85;63.32
69208;SHT31;56321;47.662;8.878;2023-01-16T13:42:50;6.76;63.49
69208;SHT31;56321;47.662;8.878;2023-01-16T13:45:30;6.73;63.45
69208;SHT31;56321;47.662;8.878;2023-01-16T13:48:19;6.68;63.15
69208;SHT31;56321;47.662;8.878;2023-01-16T13:50:50;6.62;63.05
69208;SHT31;56321;47.662;8.878;2023-01-16T13:53:17;6.61;63.39
69208;SHT31;56321;47.662;8.878;2023-01-16T13:55:42;6.59;63.53
69208;SHT31;56321;47.662;8.878;2023-01-16T13:58:23;6.54;63.23
69208;SHT31;56321;47.662;8.878;2023-01-16T14:01:33;6.54;63.02
69208;SHT31;56321;47.662;8.878;2023-01-16T14:04:29;6.48;62.70
69208;SHT31;56321;47.662;8.878;2023-01-16T14:07:00;6.46;63.15
69208;SHT31;56321;47.662;8.878;2023-01-16T14:13:14;6.42;63.71
69208;SHT31;56321;47.662;8.878;2023-01-16T14:15:52;6.38;63.95
69208;SHT31;56321;47.662;8.878;2023-01-16T14:18:41;6.41;63.92
69208;SHT31;56321;47.662;8.878;2023-01-16T14:22:00;6.41;64.04
69208;SHT31;56321;47.662;8.878;2023-01-16T14:24:09;6.38;64.57
69208;SHT31;56321;47.662;8.878;2023-01-16T14:26:58;6.34;65.07
69208;SHT31;56321;47.662;8.878;2023-01-16T14:29:32;6.34;64.79
69208;SHT31;56321;47.662;8.878;2023-01-16T14:34:37;6.34;65.13
69208;SHT31;56321;47.662;8.878;2023-01-16T14:37:21;6.31;64.90
69208;SHT31;56321;47.662;8.878;2023-01-16T14:39:53;6.34;64.99
69208;SHT31;56321;47.662;8.878;2023-01-16T14:51:00;6.30;65.27
69208;SHT31;56321;47.662;8.878;2023-01-16T14:53:49;6.34;65.42
69208;SHT31;56321;47.662;8.878;2023-01-16T14:56:37;6.33;64.93
69208;SHT31;56321;47.662;8.878;2023-01-16T14:59:18;6.35;65.10
69208;SHT31;56321;47.662;8.878;2023-01-16T15:01:57;6.37;64.45
69208;SHT31;56321;47.662;8.878;2023-01-16T15:04:59;6.40;64.75
69208;SHT31;56321;47.662;8.878;2023-01-16T15:07:40;6.44;64.96
69208;SHT31;56321;47.662;8.878;2023-01-16T15:10:19;6.45;64.54
69208;SHT31;56321;47.662;8.878;2023-01-16T15:12:45;6.44;62.93
69208;SHT31;56321;47.662;8.878;2023-01-16T15:15:30;6.41;62.28
69208;SHT31;56321;47.662;8.878;2023-01-16T15:17:57;6.45;62.81
69208;SHT31;56321;47.662;8.878;2023-01-16T15:20:43;6.44;62.39
69208;SHT31;56321;47.662;8.878;2023-01-16T15:23:38;6.45;62.15
69208;SHT31;56321;47.662;8.878;2023-01-16T15:31:40;6.48;61.87
69208;SHT31;56321;47.662;8.878;2023-01-16T15:36:47;6.46;61.04
69208;SHT31;56321;47.662;8.878;2023-01-16T15:41:52;6.54;61.13
69208;SHT31;56321;47.662;8.878;2023-01-16T15:44:39;6.58;61.03
69208;SHT31;56321;47.662;8.878;2023-01-16T15:47:30;6.58;60.75
69208;SHT31;56321;47.662;8.878;2023-01-16T15:50:06;6.61;60.46
69208;SHT31;56321;47.662;8.878;2023-01-16T15:52:34;6.65;60.58
69208;SHT31;56321;47.662;8.878;2023-01-16T15:55:20;6.68;60.38
69208;SHT31;56321;47.662;8.878;2023-01-16T15:57:49;6.72;60.60
69208;SHT31;56321;47.662;8.878;2023-01-16T16:00:25;6.75;60.45
69208;SHT31;56321;47.662;8.878;2023-01-16T16:02:56;6.76;60.47
69208;SHT31;56321;47.662;8.878;2023-01-16T16:05:22;6.83;60.65
69208;SHT31;56321;47.662;8.878;2023-01-16T16:07:48;6.83;60.56
69208;SHT31;56321;47.662;8.878;2023-01-16T16:10:14;6.85;60.60
69208;SHT31;56321;47.662;8.878;2023-01-16T16:13:03;6.82;60.23
69208;SHT31;56321;47.662;8.878;2023-01-16T16:15:29;6.83;60.45
69208;SHT31;56321;47.662;8.878;2023-01-16T16:18:15;6.83;60.59
69208;SHT31;56321;47.662;8.878;2023-01-16T16:20:42;6.83;60.64
69208;SHT31;56321;47.662;8.878;2023-01-16T16:28:18;6.90;61.57
69208;SHT31;56321;47.662;8.878;2023-01-16T16:30:44;6.90;61.68
69208;SHT31;56321;47.662;8.878;2023-01-16T16:33:15;6.93;61.92
69208;SHT31;56321;47.662;8.878;2023-01-16T16:35:47;6.90;62.15
69208;SHT31;56321;47.662;8.878;2023-01-16T16:43:55;6.89;62.35
69208;SHT31;56321;47.662;8.878;2023-01-16T16:48:50;6.89;62.78
69208;SHT31;56321;47.662;8.878;2023-01-16T16:53:47;6.83;64.18
69208;SHT31;56321;47.662;8.878;2023-01-16T16:56:14;6.71;64.66
69208;SHT31;56321;47.662;8.878;2023-01-16T16:58:45;6.62;64.87
69208;SHT31;56321;47.662;8.878;2023-01-16T17:01:15;6.56;65.25
69208;SHT31;56321;47.662;8.878;2023-01-16T17:03:43;6.52;65.13
69208;SHT31;56321;47.662;8.878;2023-01-16T17:06:35;6.49;66.00
69208;SHT31;56321;47.662;8.878;2023-01-16T17:09:00;6.48;65.81
69208;SHT31;56321;47.662;8.878;2023-01-16T17:11:27;6.48;66.44
69208;SHT31;56321;47.662;8.878;2023-01-16T17:13:52;6.41;66.99
69208;SHT31;56321;47.662;8.878;2023-01-16T17:16:20;6.16;67.72
69208;SHT31;56321;47.662;8.878;2023-01-16T17:18:46;5.83;68.72
69208;SHT31;56321;47.662;8.878;2023-01-16T17:21:15;5.55;69.55
69208;SHT31;56321;47.662;8.878;2023-01-16T17:23:41;5.34;70.53
69208;SHT31;56321;47.662;8.878;2023-01-16T17:26:06;5.23;71.06
69208;SHT31;56321;47.662;8.878;2023-01-16T17:28:33;5.21;71.53
69208;SHT31;56321;47.662;8.878;2023-01-16T17:30:59;5.20;71.49
69208;SHT31;56321;47.662;8.878;2023-01-16T17:33:24;5.16;71.72
69208;SHT31;56321;47.662;8.878;2023-01-16T17:35:52;5.16;72.12
69208;SHT31;56321;47.662;8.878;2023-01-16T17:38:40;5.14;72.29
69208;SHT31;56321;47.662;8.878;2023-01-16T17:41:15;5.11;72.72
69208;SHT31;56321;47.662;8.878;2023-01-16T17:43:41;5.18;72.80
69208;SHT31;56321;47.662;8.878;2023-01-16T17:46:25;5.21;73.00
69208;SHT31;56321;47.662;8.878;2023-01-16T17:48:50;5.21;72.71
69208;SHT31;56321;47.662;8.878;2023-01-16T17:51:16;5.26;73.05
69208;SHT31;56321;47.662;8.878;2023-01-16T17:53:47;5.27;73.27
69208;SHT31;56321;47.662;8.878;2023-01-16T17:56:12;5.27;73.05
69208;SHT31;56321;47.662;8.878;2023-01-16T17:58:39;5.30;72.86
69208;SHT31;56321;47.662;8.878;2023-01-16T18:01:22;5.34;72.79
69208;SHT31;56321;47.662;8.878;2023-01-16T18:03:50;5.37;72.46
69208;SHT31;56321;47.662;8.878;2023-01-16T18:06:21;5.39;72.88
69208;SHT31;56321;47.662;8.878;2023-01-16T18:08:48;5.37;72.80
69208;SHT31;56321;47.662;8.878;2023-01-16T18:11:13;5.37;72.74
69208;SHT31;56321;47.662;8.878;2023-01-16T18:13:57;5.37;72.55
69208;SHT31;56321;47.662;8.878;2023-01-16T18:16:41;5.39;72.66
69208;SHT31;56321;47.662;8.878;2023-01-16T18:19:25;5.42;72.71
69208;SHT31;56321;47.662;8.878;2023-01-16T18:21:50;5.44;72.40
69208;SHT31;56321;47.662;8.878;2023-01-16T18:24:24;5.45;72.37
69208;SHT31;56321;47.662;8.878;2023-01-16T18:26:50;5.47;72.21